Time;durP1;ratioP1;P1;durP2;ratioP2;P2;SDS_P1;SDS_P2;PMS_P1;PMS_P2;Temp;Humidity;BMP_temperature;BMP_pressure;BME280_temperature;BME280_humidity;BME280_pressure;Samples;Min_cycle;Max_cycle;Signal;HPM_P1;HPM_P2
2022/03/03 00:00:06;;;;;;;12.53;7.43;;;-1.50;98.20;;;;;;2097485;28;20186;-75
2022/03/03 00:01:07;;;;;;;14.20;7.50;;;-1.50;98.60;;;;;;2096917;28;20231;-75
2022/03/03 00:02:08;;;;;;;16.88;8.18;;;-1.50;99.00;;;;;;2096709;28;20283;-75
2022/03/03 00:03:08;;;;;;;15.47;7.37;;;-1.50;99.00;;;;;;2105294;28;20182;-75
2022/03/03 00:04:09;;;;;;;17.73;8.67;;;-1.50;99.10;;;;;;2096739;28;20178;-74
2022/03/03 00:05:11;;;;;;;13.53;7.47;;;-1.50;99.20;;;;;;2096363;28;20193;-75
2022/03/03 00:06:12;;;;;;;13.93;7.43;;;-1.50;99.30;;;;;;2096901;28;20174;-75
2022/03/03 00:07:14;;;;;;;15.77;8.23;;;-1.50;99.10;;;;;;2096445;28;20270;-75
2022/03/03 00:08:14;;;;;;;14.38;7.72;;;-1.50;99.00;;;;;;2093660;28;20186;-74
2022/03/03 00:09:15;;;;;;;12.03;7.27;;;-1.50;98.90;;;;;;2096969;28;20174;-75
2022/03/03 00:10:16;;;;;;;16.67;7.40;;;-1.40;99.10;;;;;;2096696;28;20232;-75
2022/03/03 00:11:16;;;;;;;13.83;6.80;;;-1.40;98.80;;;;;;2096831;28;20185;-75
2022/03/03 00:12:17;;;;;;;16.33;8.53;;;-1.40;98.80;;;;;;2097196;28;20183;-75
2022/03/03 00:13:18;;;;;;;14.97;7.20;;;-1.40;98.50;;;;;;2096729;28;20181;-75
2022/03/03 00:14:18;;;;;;;16.43;7.43;;;-1.40;98.50;;;;;;2096766;28;20185;-75
2022/03/03 00:15:19;;;;;;;15.17;7.33;;;-1.40;98.50;;;;;;2096278;28;20208;-75
2022/03/03 00:16:20;;;;;;;16.27;7.10;;;-1.40;98.50;;;;;;2096785;28;20173;-74
2022/03/03 00:17:20;;;;;;;13.30;7.35;;;-1.40;98.40;;;;;;2088607;28;20179;-74
2022/03/03 00:18:21;;;;;;;13.23;6.67;;;-1.50;98.60;;;;;;2096652;28;20182;-75
2022/03/03 00:19:22;;;;;;;14.47;6.90;;;-1.50;98.90;;;;;;2097555;28;20181;-75
2022/03/03 00:20:23;;;;;;;12.77;6.90;;;-1.50;99.00;;;;;;2096798;28;20216;-75
2022/03/03 00:21:23;;;;;;;13.23;7.03;;;-1.40;98.90;;;;;;2096947;28;20294;-75
2022/03/03 00:22:24;;;;;;;14.60;6.70;;;-1.40;98.70;;;;;;2097337;28;20177;-75
2022/03/03 00:23:24;;;;;;;12.47;7.03;;;-1.40;98.60;;;;;;2088548;28;20639;-75
2022/03/03 00:24:25;;;;;;;12.83;6.53;;;-1.40;98.60;;;;;;2088461;28;20206;-74
2022/03/03 00:25:26;;;;;;;13.98;6.88;;;-1.40;98.50;;;;;;2096153;28;20171;-75
2022/03/03 00:26:27;;;;;;;16.87;7.00;;;-1.40;98.40;;;;;;2088508;28;20259;-74
2022/03/03 00:27:27;;;;;;;12.67;7.37;;;-1.40;98.40;;;;;;2097071;28;20188;-75
2022/03/03 00:28:28;;;;;;;13.57;6.63;;;-1.40;98.70;;;;;;2097046;28;20195;-74
2022/03/03 00:29:29;;;;;;;13.23;7.00;;;-1.40;98.30;;;;;;2088418;28;20178;-74
2022/03/03 00:30:30;;;;;;;12.93;6.50;;;-1.40;98.30;;;;;;2096770;28;20189;-74
2022/03/03 00:31:30;;;;;;;13.80;6.97;;;-1.40;98.40;;;;;;2096789;28;20695;-75
2022/03/03 00:32:37;;;;;;;11.93;6.07;;;-1.40;98.60;;;;;;2088626;28;20587;-75
2022/03/03 00:33:38;;;;;;;14.27;7.80;;;-1.40;98.30;;;;;;2096975;28;20238;-74
2022/03/03 00:34:39;;;;;;;12.30;6.93;;;-1.30;98.30;;;;;;2097347;28;20718;-74
2022/03/03 00:35:39;;;;;;;12.30;7.23;;;-1.40;98.30;;;;;;2096084;28;20181;-74
2022/03/03 00:36:41;;;;;;;14.33;7.13;;;-1.40;98.50;;;;;;2097011;28;20640;-74
2022/03/03 00:37:42;;;;;;;14.35;6.80;;;-1.40;98.60;;;;;;2096531;28;20198;-74
2022/03/03 00:38:43;;;;;;;14.93;6.97;;;-1.40;98.60;;;;;;2088467;28;20677;-73
2022/03/03 00:39:44;;;;;;;14.47;7.23;;;-1.40;98.80;;;;;;2088142;28;20182;-74
2022/03/03 00:40:45;;;;;;;13.93;7.28;;;-1.40;98.60;;;;;;2096704;28;20231;-74
2022/03/03 00:41:45;;;;;;;14.00;6.67;;;-1.50;98.90;;;;;;2096582;28;20620;-74
2022/03/03 00:42:46;;;;;;;13.27;6.93;;;-1.50;99.10;;;;;;2096854;28;20181;-73
2022/03/03 00:43:47;;;;;;;15.67;7.93;;;-1.60;99.80;;;;;;2096851;28;20187;-74
2022/03/03 00:44:47;;;;;;;18.63;7.13;;;-1.60;99.60;;;;;;2088442;28;20703;-73
2022/03/03 00:45:49;;;;;;;14.63;7.40;;;-1.60;99.80;;;;;;2095992;28;20185;-76
2022/03/03 00:46:49;;;;;;;13.00;6.50;;;-1.70;99.80;;;;;;2097364;28;20233;-75
2022/03/03 00:47:50;;;;;;;12.77;6.93;;;-1.60;99.90;;;;;;2097339;28;20247;-75
2022/03/03 00:48:52;;;;;;;14.07;6.97;;;-1.60;99.90;;;;;;2096839;28;20180;-76
2022/03/03 00:49:53;;;;;;;15.52;6.93;;;-1.60;99.90;;;;;;2088503;28;20184;-73
2022/03/03 00:50:53;;;;;;;12.10;6.67;;;-1.70;99.90;;;;;;2096654;28;20223;-75
2022/03/03 00:51:54;;;;;;;14.30;6.57;;;-1.60;99.80;;;;;;2097046;28;20211;-75
2022/03/03 00:52:55;;;;;;;12.27;7.00;;;-1.60;99.90;;;;;;2096757;28;20701;-75
2022/03/03 00:53:56;;;;;;;8.60;5.43;;;-1.60;99.90;;;;;;2088284;28;20556;-75
2022/03/03 00:54:57;;;;;;;13.87;7.33;;;-1.60;99.80;;;;;;2088322;28;20680;-75
2022/03/03 00:55:57;;;;;;;10.37;5.80;;;-1.60;99.90;;;;;;2095922;28;20212;-75
2022/03/03 00:56:58;;;;;;;12.13;6.50;;;-1.60;99.80;;;;;;2097477;28;20184;-75
2022/03/03 00:57:58;;;;;;;14.50;6.33;;;-1.60;99.80;;;;;;2096483;28;20213;-75
2022/03/03 00:58:59;;;;;;;13.73;7.00;;;-1.70;99.90;;;;;;2088339;28;20191;-75
2022/03/03 01:00:04;;;;;;;14.97;7.07;;;-1.70;99.90;;;;;;2088185;28;20200;-75
2022/03/03 01:01:04;;;;;;;16.60;7.45;;;-1.70;99.90;;;;;;2096317;28;20185;-75
2022/03/03 01:02:05;;;;;;;15.83;7.37;;;-1.70;99.70;;;;;;2096963;28;20189;-75
2022/03/03 01:03:06;;;;;;;11.00;5.80;;;-1.70;99.70;;;;;;2096442;28;20181;-75
2022/03/03 01:04:07;;;;;;;15.63;7.07;;;-1.70;99.80;;;;;;2088223;28;20666;-75
2022/03/03 01:05:08;;;;;;;11.00;6.03;;;-1.70;99.70;;;;;;2088106;28;20192;-75
2022/03/03 01:06:10;;;;;;;12.50;6.53;;;-1.70;99.50;;;;;;2088018;28;20196;-75
2022/03/03 01:07:11;;;;;;;11.77;6.35;;;-1.80;99.90;;;;;;2088309;28;20641;-75
2022/03/03 01:08:12;;;;;;;11.77;6.47;;;-1.70;99.90;;;;;;2096552;28;20177;-75
2022/03/03 01:09:13;;;;;;;12.05;6.30;;;-1.70;99.90;;;;;;2097325;28;20197;-75
2022/03/03 01:10:14;;;;;;;13.97;7.07;;;-1.70;99.50;;;;;;2096531;28;20268;-74
2022/03/03 01:11:15;;;;;;;11.13;5.97;;;-1.70;99.70;;;;;;2088426;28;20220;-75
2022/03/03 01:12:16;;;;;;;13.20;6.00;;;-1.80;99.80;;;;;;2096591;28;20522;-74
2022/03/03 01:13:17;;;;;;;14.87;6.80;;;-1.70;99.60;;;;;;2096696;28;20440;-75
2022/03/03 01:14:21;;;;;;;11.60;6.67;;;-1.70;99.50;;;;;;2096542;28;20177;-75
2022/03/03 01:15:22;;;;;;;13.00;7.38;;;-1.70;99.80;;;;;;2094971;28;20315;-75
2022/03/03 01:16:23;;;;;;;12.32;6.82;;;-1.70;99.70;;;;;;2096661;28;20814;-75
2022/03/03 01:17:24;;;;;;;9.73;6.43;;;-1.70;99.70;;;;;;2088289;28;20178;-75
2022/03/03 01:18:25;;;;;;;10.65;5.60;;;-1.80;99.40;;;;;;2080396;28;20184;-75
2022/03/03 01:19:26;;;;;;;9.75;5.88;;;-1.80;99.60;;;;;;2079985;28;20186;-75
2022/03/03 01:20:29;;;;;;;12.10;6.53;;;-1.80;99.60;;;;;;2088352;28;20179;-74
2022/03/03 01:21:30;;;;;;;11.65;6.32;;;-1.80;99.90;;;;;;2088250;28;20193;-75
2022/03/03 01:22:30;;;;;;;10.77;5.97;;;-1.90;99.90;;;;;;2080254;28;20196;-75
2022/03/03 01:23:31;;;;;;;12.90;5.90;;;-1.90;99.90;;;;;;2080032;28;20186;-75
2022/03/03 01:24:32;;;;;;;11.50;6.40;;;-1.90;99.90;;;;;;2080697;28;20201;-75
2022/03/03 01:25:33;;;;;;;14.80;7.13;;;-1.80;99.90;;;;;;2089191;28;20182;-75
2022/03/03 01:26:34;;;;;;;12.27;5.93;;;-1.90;99.90;;;;;;2092024;28;20178;-75
2022/03/03 01:27:34;;;;;;;12.53;6.03;;;-1.90;99.90;;;;;;2097774;28;20216;-74
2022/03/03 01:28:35;;;;;;;11.30;6.10;;;-1.80;99.90;;;;;;2098071;28;20184;-74
2022/03/03 01:29:36;;;;;;;12.23;6.93;;;-1.80;99.90;;;;;;2097945;28;20219;-74
2022/03/03 01:30:36;;;;;;;12.10;6.07;;;-1.90;99.90;;;;;;2098156;28;20234;-74
2022/03/03 01:31:37;;;;;;;12.87;6.13;;;-1.90;99.90;;;;;;2097841;28;20173;-74
2022/03/03 01:32:38;;;;;;;12.30;6.93;;;-1.90;99.90;;;;;;2089858;28;20267;-74
2022/03/03 01:33:39;;;;;;;13.65;6.82;;;-1.90;99.90;;;;;;2089644;28;20180;-74
2022/03/03 01:34:39;;;;;;;14.00;6.03;;;-2.00;99.90;;;;;;2098009;28;20190;-75
2022/03/03 01:35:41;;;;;;;14.50;6.70;;;-2.00;99.90;;;;;;2097983;28;20187;-75
2022/03/03 01:36:43;;;;;;;15.20;7.28;;;-2.00;99.90;;;;;;2098147;28;20185;-74
2022/03/03 01:37:43;;;;;;;11.93;6.03;;;-2.00;99.90;;;;;;2097440;28;20323;-74
2022/03/03 01:38:44;;;;;;;12.20;5.90;;;-1.90;99.90;;;;;;2098188;28;20237;-75
2022/03/03 01:39:45;;;;;;;14.85;5.90;;;-1.90;99.90;;;;;;2089701;28;20269;-75
2022/03/03 01:40:46;;;;;;;11.90;5.40;;;-1.90;99.90;;;;;;2089801;28;20220;-74
2022/03/03 01:41:47;;;;;;;12.13;6.53;;;-1.90;99.90;;;;;;2097714;28;20242;-74
2022/03/03 01:42:48;;;;;;;11.77;6.40;;;-2.00;99.90;;;;;;2098581;28;20686;-75
2022/03/03 01:43:48;;;;;;;12.43;6.25;;;-2.00;99.90;;;;;;2097894;28;20658;-74
2022/03/03 01:44:49;;;;;;;13.03;6.53;;;-2.00;99.90;;;;;;2097890;28;20209;-74
2022/03/03 01:45:50;;;;;;;12.07;5.90;;;-2.00;99.90;;;;;;2097983;28;20206;-74
2022/03/03 01:46:54;;;;;;;11.30;5.60;;;-2.00;99.90;;;;;;2098123;28;20225;-74
2022/03/03 01:47:55;;;;;;;10.60;5.70;;;-2.10;99.90;;;;;;2090217;28;20262;-74
2022/03/03 01:48:56;;;;;;;13.17;6.17;;;-2.00;99.90;;;;;;2081351;28;20253;-74
2022/03/03 01:49:58;;;;;;;14.77;6.80;;;-2.00;99.90;;;;;;2081206;28;20186;-74
2022/03/03 01:50:58;;;;;;;11.88;5.93;;;-2.00;99.90;;;;;;2083506;28;20268;-74
2022/03/03 01:51:59;;;;;;;13.83;6.30;;;-2.00;99.90;;;;;;2097834;28;20181;-74
2022/03/03 01:53:00;;;;;;;10.57;5.80;;;-2.00;99.90;;;;;;2097883;28;20193;-74
2022/03/03 01:54:01;;;;;;;12.73;6.17;;;-2.00;99.90;;;;;;2097962;28;20232;-75
2022/03/03 01:55:03;;;;;;;13.07;6.90;;;-2.00;99.90;;;;;;2098463;28;20629;-74
2022/03/03 01:56:05;;;;;;;13.30;6.47;;;-2.00;99.90;;;;;;2098044;28;20195;-74
2022/03/03 01:57:07;;;;;;;14.13;7.05;;;-2.00;99.90;;;;;;2097641;28;20576;-75
2022/03/03 01:58:07;;;;;;;12.15;6.35;;;-2.00;99.90;;;;;;2089841;28;20698;-74
2022/03/03 01:59:09;;;;;;;11.93;5.87;;;-2.10;99.90;;;;;;2097941;28;20179;-74
2022/03/03 02:00:12;;;;;;;14.23;6.50;;;-2.00;99.90;;;;;;2094823;28;20560;-75
2022/03/03 02:01:16;;;;;;;11.68;6.45;;;-2.00;99.90;;;;;;2090317;28;20185;-75
2022/03/03 02:02:17;;;;;;;12.55;6.68;;;-2.00;99.90;;;;;;2089472;28;20184;-75
2022/03/03 02:03:17;;;;;;;14.37;6.07;;;-2.00;99.90;;;;;;2081489;28;20192;-74
2022/03/03 02:04:18;;;;;;;11.37;5.90;;;-2.00;99.90;;;;;;2081094;28;20248;-75
2022/03/03 02:05:19;;;;;;;11.47;6.67;;;-2.00;99.90;;;;;;2080518;28;20174;-74
2022/03/03 02:06:20;;;;;;;12.03;5.90;;;-2.10;99.90;;;;;;2081390;28;20214;-75
2022/03/03 02:07:21;;;;;;;10.53;6.07;;;-2.10;99.90;;;;;;2089339;28;20189;-75
2022/03/03 02:08:23;;;;;;;12.27;5.78;;;-2.10;99.90;;;;;;2089455;28;20268;-75
2022/03/03 02:09:24;;;;;;;10.68;4.90;;;-2.00;99.90;;;;;;2089429;28;20173;-74
2022/03/03 02:10:25;;;;;;;11.50;6.10;;;-2.00;99.90;;;;;;2089506;28;20172;-75
2022/03/03 02:11:26;;;;;;;11.23;5.70;;;-2.00;99.90;;;;;;2081110;28;20285;-74
2022/03/03 02:12:26;;;;;;;10.48;6.13;;;-2.00;99.90;;;;;;2081315;28;20182;-75
2022/03/03 02:13:27;;;;;;;11.60;5.43;;;-2.00;99.90;;;;;;2089430;28;20682;-75
2022/03/03 02:14:28;;;;;;;8.60;4.83;;;-2.00;99.90;;;;;;2090073;28;20228;-75
2022/03/03 02:15:28;;;;;;;12.90;5.93;;;-2.00;99.90;;;;;;2088700;28;20272;-75
2022/03/03 02:16:30;;;;;;;10.50;5.60;;;-2.00;99.90;;;;;;2081177;28;20672;-75
2022/03/03 02:17:30;;;;;;;11.90;5.05;;;-2.00;99.90;;;;;;2089352;28;20180;-74
2022/03/03 02:18:31;;;;;;;13.97;6.53;;;-2.00;99.90;;;;;;2089494;28;20181;-75
2022/03/03 02:19:31;;;;;;;11.93;5.90;;;-2.00;99.90;;;;;;2089387;28;20628;-75
2022/03/03 02:20:32;;;;;;;11.57;6.00;;;-2.00;99.90;;;;;;2090158;28;20647;-75
2022/03/03 02:21:33;;;;;;;15.23;6.37;;;-2.00;99.90;;;;;;2089167;28;20559;-75
2022/03/03 02:22:35;;;;;;;12.47;6.57;;;-2.00;99.90;;;;;;2089345;28;20189;-75
2022/03/03 02:23:36;;;;;;;11.82;5.93;;;-2.00;99.90;;;;;;2089193;28;21011;-75
2022/03/03 02:24:37;;;;;;;12.57;6.07;;;-2.00;99.90;;;;;;2080984;28;20213;-75
2022/03/03 02:25:38;;;;;;;12.75;6.13;;;-2.00;99.90;;;;;;2080538;28;20666;-75
2022/03/03 02:26:40;;;;;;;12.63;7.07;;;-2.10;99.90;;;;;;2081055;28;20177;-75
2022/03/03 02:27:44;;;;;;;13.45;5.47;;;-2.10;99.90;;;;;;2081043;28;20225;-75
2022/03/03 02:28:50;;;;;;;11.05;5.57;;;-2.10;99.90;;;;;;2081634;28;20286;-75
2022/03/03 02:29:52;;;;;;;10.93;5.57;;;-2.10;99.90;;;;;;2081828;28;20304;-74
2022/03/03 02:30:52;;;;;;;9.30;5.10;;;-2.10;99.90;;;;;;2081195;28;20185;-75
2022/03/03 02:31:53;;;;;;;9.40;5.07;;;-2.00;99.90;;;;;;2089326;28;20527;-75
2022/03/03 02:32:54;;;;;;;13.40;6.27;;;-2.00;99.90;;;;;;2089232;28;20266;-74
2022/03/03 02:33:57;;;;;;;13.00;6.73;;;-2.10;99.90;;;;;;2080758;28;20199;-75
2022/03/03 02:34:58;;;;;;;13.52;6.18;;;-2.10;99.90;;;;;;2081052;28;20185;-74
2022/03/03 02:36:25;;;;;;;11.40;5.77;;;-2.10;99.90;;;;;;2079629;28;20196;-74
2022/03/03 02:37:39;;;;;;;9.05;5.15;;;-2.20;99.90;;;;;;2089355;28;20196;-74
2022/03/03 02:38:39;;;;;;;11.95;6.25;;;-2.20;99.90;;;;;;2089364;28;20746;-75
2022/03/03 02:39:41;;;;;;;12.73;5.63;;;-2.20;99.90;;;;;;2081026;28;20236;-74
2022/03/03 02:40:42;;;;;;;10.18;5.05;;;-2.20;99.90;;;;;;2081112;28;20189;-75
2022/03/03 02:41:43;;;;;;;10.10;5.43;;;-2.30;99.90;;;;;;2081097;28;20221;-75
2022/03/03 02:42:43;;;;;;;8.97;5.43;;;-2.20;99.90;;;;;;2080931;28;20894;-74
2022/03/03 02:43:44;;;;;;;11.97;5.73;;;-2.20;99.90;;;;;;2081055;28;20880;-74
2022/03/03 02:44:45;;;;;;;10.53;5.57;;;-2.20;99.90;;;;;;2080746;28;20589;-74
2022/03/03 02:45:45;;;;;;;9.13;5.07;;;-2.20;99.90;;;;;;2080763;28;20184;-74
2022/03/03 02:46:46;;;;;;;10.50;5.70;;;-2.20;99.90;;;;;;2085235;28;20190;-74
2022/03/03 02:47:49;;;;;;;12.07;5.27;;;-2.20;99.90;;;;;;2088960;28;20219;-75
2022/03/03 02:48:50;;;;;;;11.68;5.75;;;-2.20;99.90;;;;;;2089224;28;20687;-74
2022/03/03 02:49:50;;;;;;;8.73;5.10;;;-2.10;99.90;;;;;;2097387;28;20184;-75
2022/03/03 02:50:51;;;;;;;12.10;6.23;;;-2.10;99.90;;;;;;2097826;28;20173;-75
2022/03/03 02:51:52;;;;;;;11.37;5.83;;;-2.20;99.90;;;;;;2097437;28;20180;-76
2022/03/03 02:52:52;;;;;;;10.37;5.33;;;-2.10;99.90;;;;;;2097121;28;20192;-75
2022/03/03 02:53:53;;;;;;;14.97;5.97;;;-2.00;99.90;;;;;;2097339;28;20180;-74
2022/03/03 02:54:54;;;;;;;9.23;4.97;;;-2.00;99.90;;;;;;2080550;28;20763;-75
2022/03/03 02:55:55;;;;;;;8.77;4.83;;;-2.00;99.90;;;;;;2080485;28;20189;-75
2022/03/03 02:58:15;;;;;;;12.73;5.32;;;-2.10;99.90;;;;;;2097795;28;20203;-74
2022/03/03 02:59:15;;;;;;;8.77;5.37;;;-2.10;99.90;;;;;;2097848;28;20176;-75
2022/03/03 03:00:16;;;;;;;12.50;6.40;;;-2.20;99.90;;;;;;2097410;28;20180;-75
2022/03/03 03:01:17;;;;;;;12.23;5.43;;;-2.10;99.90;;;;;;2088994;28;20976;-75
2022/03/03 03:02:18;;;;;;;11.47;5.80;;;-2.10;99.90;;;;;;2084057;28;20193;-74
2022/03/03 03:03:19;;;;;;;9.70;5.03;;;-2.10;99.90;;;;;;2093880;28;20789;-75
2022/03/03 03:04:20;;;;;;;12.82;6.35;;;-2.20;99.90;;;;;;2097007;28;20632;-74
2022/03/03 03:05:21;;;;;;;10.53;5.73;;;-2.20;99.90;;;;;;2088324;28;20205;-74
2022/03/03 03:06:21;;;;;;;9.97;5.20;;;-2.20;99.90;;;;;;2089054;28;20618;-75
2022/03/03 03:07:22;;;;;;;9.77;5.53;;;-2.10;99.90;;;;;;2097158;28;20173;-75
2022/03/03 03:08:23;;;;;;;11.80;6.03;;;-2.10;99.90;;;;;;2098067;28;20184;-74
2022/03/03 03:09:24;;;;;;;11.97;6.33;;;-2.10;99.90;;;;;;2097219;28;20263;-74
2022/03/03 03:10:24;;;;;;;12.13;5.70;;;-2.20;99.90;;;;;;2097378;28;20203;-75
2022/03/03 03:11:25;;;;;;;13.53;6.00;;;-2.20;99.90;;;;;;2097290;28;20239;-75
2022/03/03 03:12:26;;;;;;;11.87;5.07;;;-2.20;99.90;;;;;;2089070;28;20226;-74
2022/03/03 03:13:26;;;;;;;11.87;6.03;;;-2.20;99.90;;;;;;2088923;28;20174;-74
2022/03/03 03:14:27;;;;;;;17.00;5.83;;;-2.20;99.90;;;;;;2097191;28;20175;-75
2022/03/03 03:15:28;;;;;;;12.13;5.80;;;-2.20;99.90;;;;;;2088168;28;20185;-75
2022/03/03 03:16:28;;;;;;;11.97;5.87;;;-2.20;99.90;;;;;;2088898;28;20671;-75
2022/03/03 03:17:29;;;;;;;10.33;5.30;;;-2.20;99.90;;;;;;2088739;28;20175;-74
2022/03/03 03:18:30;;;;;;;11.10;5.77;;;-2.20;99.90;;;;;;2097178;28;20178;-75
2022/03/03 03:19:30;;;;;;;11.70;5.80;;;-2.20;99.80;;;;;;2097722;28;20181;-75
2022/03/03 03:20:31;;;;;;;10.73;5.83;;;-2.20;99.90;;;;;;2098041;28;20199;-74
2022/03/03 03:21:32;;;;;;;10.83;5.37;;;-2.20;99.90;;;;;;2097847;28;20231;-74
2022/03/03 03:22:34;;;;;;;9.40;5.37;;;-2.30;99.80;;;;;;2097023;28;20730;-74
2022/03/03 03:23:35;;;;;;;11.68;6.38;;;-2.30;99.90;;;;;;2088984;28;20172;-74
2022/03/03 03:24:35;;;;;;;10.73;6.37;;;-2.20;99.90;;;;;;2097088;28;20248;-75
2022/03/03 03:25:43;;;;;;;12.37;6.63;;;-2.30;99.80;;;;;;2097122;28;20180;-74
2022/03/03 03:26:43;;;;;;;11.27;5.82;;;-2.30;99.90;;;;;;2097846;28;20169;-74
2022/03/03 03:27:45;;;;;;;9.77;5.90;;;-2.40;99.90;;;;;;2097064;28;20200;-74
2022/03/03 03:28:46;;;;;;;12.77;5.78;;;-2.40;99.90;;;;;;2097295;28;20197;-74
2022/03/03 03:29:46;;;;;;;11.70;6.00;;;-2.40;99.90;;;;;;2097162;28;20183;-74
2022/03/03 03:30:47;;;;;;;12.00;5.87;;;-2.30;99.90;;;;;;2097125;28;20182;-73
2022/03/03 03:31:48;;;;;;;12.03;6.17;;;-2.30;99.90;;;;;;2097142;28;20199;-74
2022/03/03 03:32:49;;;;;;;11.90;6.13;;;-2.30;99.90;;;;;;2088831;28;20780;-75
2022/03/03 03:33:49;;;;;;;13.30;6.00;;;-2.30;99.90;;;;;;2088873;28;20180;-74
2022/03/03 03:34:50;;;;;;;10.87;5.43;;;-2.30;99.90;;;;;;2096966;28;20185;-74
2022/03/03 03:35:51;;;;;;;11.30;5.90;;;-2.30;99.90;;;;;;2096458;28;20184;-74
2022/03/03 03:36:52;;;;;;;10.63;5.60;;;-2.40;99.90;;;;;;2088647;28;20184;-74
2022/03/03 03:37:52;;;;;;;11.15;5.82;;;-2.40;99.90;;;;;;2088769;28;20209;-74
2022/03/03 03:38:53;;;;;;;8.93;4.50;;;-2.40;99.90;;;;;;2097131;28;20194;-74
2022/03/03 03:39:54;;;;;;;10.40;5.10;;;-2.40;99.90;;;;;;2097159;28;20180;-74
2022/03/03 03:40:54;;;;;;;13.00;6.10;;;-2.40;99.90;;;;;;2096697;28;20180;-74
2022/03/03 03:41:55;;;;;;;9.67;5.10;;;-2.40;99.90;;;;;;2088829;28;20186;-74
2022/03/03 03:42:56;;;;;;;11.27;5.93;;;-2.40;99.90;;;;;;2096898;28;20191;-75
2022/03/03 03:43:57;;;;;;;10.50;6.00;;;-2.40;99.90;;;;;;2097556;28;20432;-74
2022/03/03 03:44:57;;;;;;;10.80;5.33;;;-2.40;99.90;;;;;;2097444;28;20200;-74
2022/03/03 03:45:58;;;;;;;9.73;5.13;;;-2.40;99.90;;;;;;2096974;28;20182;-75
2022/03/03 03:46:59;;;;;;;10.27;5.37;;;-2.40;99.90;;;;;;2097566;28;20186;-74
2022/03/03 03:47:59;;;;;;;10.17;5.43;;;-2.40;99.90;;;;;;2097540;28;20243;-74
2022/03/03 03:49:00;;;;;;;10.07;5.23;;;-2.30;99.90;;;;;;2097044;28;20546;-75
2022/03/03 03:50:02;;;;;;;12.60;5.20;;;-2.30;99.90;;;;;;2088935;28;20177;-75
2022/03/03 03:51:03;;;;;;;11.15;5.72;;;-2.40;99.90;;;;;;2090153;28;20182;-74
2022/03/03 03:52:03;;;;;;;9.40;5.10;;;-2.40;99.90;;;;;;2088486;28;20867;-74
2022/03/03 03:53:04;;;;;;;15.23;6.47;;;-2.40;99.90;;;;;;2096662;28;20207;-73
2022/03/03 03:54:05;;;;;;;9.07;5.23;;;-2.40;99.90;;;;;;2097011;28;20182;-74
2022/03/03 03:55:08;;;;;;;9.47;5.43;;;-2.40;99.90;;;;;;2096954;28;20184;-73
2022/03/03 03:56:09;;;;;;;11.93;5.97;;;-2.40;99.90;;;;;;2089191;28;20675;-74
2022/03/03 03:57:10;;;;;;;11.00;5.03;;;-2.40;99.90;;;;;;2088546;28;20196;-74
2022/03/03 03:58:10;;;;;;;8.63;4.87;;;-2.40;99.90;;;;;;2097005;28;20212;-74
2022/03/03 03:59:11;;;;;;;11.27;5.00;;;-2.40;99.90;;;;;;2097505;28;20946;-74
2022/03/03 04:00:14;;;;;;;9.03;4.80;;;-2.40;99.90;;;;;;2097127;28;20176;-74
2022/03/03 04:01:15;;;;;;;6.32;4.55;;;-2.40;99.90;;;;;;2088912;28;20279;-74
2022/03/03 04:02:16;;;;;;;11.52;5.30;;;-2.30;99.90;;;;;;2088596;28;20275;-74
2022/03/03 04:03:17;;;;;;;9.73;5.07;;;-2.30;99.90;;;;;;2096763;28;20180;-74
2022/03/03 04:04:18;;;;;;;10.07;5.03;;;-2.30;99.90;;;;;;2097395;28;20275;-74
2022/03/03 04:05:18;;;;;;;9.63;4.70;;;-2.30;99.90;;;;;;2096264;28;20194;-74
2022/03/03 04:06:19;;;;;;;9.80;5.00;;;-2.30;99.90;;;;;;2088762;28;20173;-74
2022/03/03 04:07:20;;;;;;;8.20;5.37;;;-2.30;99.90;;;;;;2096887;28;20221;-74
2022/03/03 04:08:20;;;;;;;7.60;4.57;;;-2.20;99.90;;;;;;2097294;28;20189;-73
2022/03/03 04:09:21;;;;;;;10.07;5.20;;;-2.20;99.90;;;;;;2096893;28;20173;-74
2022/03/03 04:10:22;;;;;;;8.27;5.87;;;-2.30;99.90;;;;;;2096984;28;20168;-74
2022/03/03 04:11:23;;;;;;;9.10;5.23;;;-2.20;99.90;;;;;;2096937;28;20209;-74
2022/03/03 04:12:23;;;;;;;11.03;5.50;;;-2.20;99.90;;;;;;2097619;28;20184;-74
2022/03/03 04:13:24;;;;;;;9.50;5.40;;;-2.20;99.90;;;;;;2096890;28;20274;-74
2022/03/03 04:14:25;;;;;;;10.63;5.23;;;-2.20;99.90;;;;;;2088534;28;20203;-74
2022/03/03 04:15:25;;;;;;;14.13;5.10;;;-2.20;99.90;;;;;;2096260;28;20172;-74
2022/03/03 04:16:26;;;;;;;9.77;4.97;;;-2.30;99.90;;;;;;2105264;28;20194;-74
2022/03/03 04:17:27;;;;;;;11.23;5.80;;;-2.30;99.90;;;;;;2097661;28;20194;-74
2022/03/03 04:18:28;;;;;;;10.63;5.40;;;-2.30;99.90;;;;;;2096719;28;20443;-74
2022/03/03 04:19:28;;;;;;;12.50;6.03;;;-2.30;99.80;;;;;;2096934;28;20236;-74
2022/03/03 04:20:29;;;;;;;12.00;5.43;;;-2.30;99.80;;;;;;2097473;28;20173;-74
2022/03/03 04:21:31;;;;;;;12.90;6.60;;;-2.30;99.50;;;;;;2096892;28;20597;-74
2022/03/03 04:22:33;;;;;;;9.63;5.20;;;-2.30;99.60;;;;;;2080304;28;20227;-74
2022/03/03 04:23:34;;;;;;;10.75;5.57;;;-2.40;99.60;;;;;;2080882;28;20216;-74
2022/03/03 04:24:34;;;;;;;12.10;5.97;;;-2.40;99.90;;;;;;2096603;28;20214;-74
2022/03/03 04:25:35;;;;;;;9.40;4.50;;;-2.50;99.90;;;;;;2096081;28;20686;-74
2022/03/03 04:26:36;;;;;;;9.47;5.03;;;-2.40;99.90;;;;;;2096886;28;20676;-74
2022/03/03 04:27:38;;;;;;;8.70;4.93;;;-2.50;99.90;;;;;;2097491;28;20204;-74
2022/03/03 04:28:39;;;;;;;8.35;4.18;;;-2.50;99.90;;;;;;2088384;28;21101;-74
2022/03/03 04:29:39;;;;;;;11.07;5.33;;;-2.50;99.90;;;;;;2088372;28;20201;-74
2022/03/03 04:30:40;;;;;;;11.17;5.40;;;-2.50;99.90;;;;;;2096535;28;20196;-74
2022/03/03 04:31:41;;;;;;;9.47;5.53;;;-2.50;99.90;;;;;;2088439;28;20185;-74
2022/03/03 04:32:41;;;;;;;9.47;4.83;;;-2.50;99.90;;;;;;2096517;28;20195;-74
2022/03/03 04:33:42;;;;;;;9.37;5.00;;;-2.50;99.90;;;;;;2105053;28;20218;-74
2022/03/03 04:34:43;;;;;;;13.57;5.57;;;-2.50;99.90;;;;;;2096428;28;20741;-73
2022/03/03 04:35:44;;;;;;;8.50;4.23;;;-2.60;99.90;;;;;;2096049;28;20232;-74
2022/03/03 04:36:44;;;;;;;10.63;5.73;;;-2.50;99.90;;;;;;2104783;28;20185;-74
2022/03/03 04:37:45;;;;;;;7.83;4.80;;;-2.60;99.90;;;;;;2096643;28;20205;-73
2022/03/03 04:38:48;;;;;;;13.20;5.07;;;-2.50;99.90;;;;;;2088694;28;20237;-74
2022/03/03 04:39:49;;;;;;;9.43;4.90;;;-2.50;99.90;;;;;;2097169;28;20335;-74
2022/03/03 04:40:49;;;;;;;10.03;5.07;;;-2.50;99.90;;;;;;2096975;28;20564;-74
2022/03/03 04:41:50;;;;;;;12.43;6.03;;;-2.50;99.90;;;;;;2089114;28;20193;-74
2022/03/03 04:42:51;;;;;;;13.23;5.43;;;-2.40;99.90;;;;;;2097146;28;20182;-74
2022/03/03 04:43:51;;;;;;;9.47;5.10;;;-2.50;99.90;;;;;;2097246;28;20684;-74
2022/03/03 04:44:52;;;;;;;8.90;4.70;;;-2.40;99.90;;;;;;2096936;28;20240;-74
2022/03/03 04:45:53;;;;;;;11.80;4.97;;;-2.40;99.90;;;;;;2104817;28;20179;-73
2022/03/03 04:46:54;;;;;;;11.23;5.60;;;-2.40;99.90;;;;;;2097041;28;20184;-74
2022/03/03 04:47:54;;;;;;;10.00;5.13;;;-2.40;99.90;;;;;;2080300;28;20205;-74
2022/03/03 04:48:59;;;;;;;11.03;5.10;;;-2.40;99.90;;;;;;2088640;28;20271;-74
2022/03/03 04:50:00;;;;;;;10.98;5.68;;;-2.40;99.90;;;;;;2097054;28;20191;-74
2022/03/03 04:51:01;;;;;;;8.03;5.07;;;-2.30;99.90;;;;;;2097089;28;20181;-74
2022/03/03 04:52:02;;;;;;;12.43;5.53;;;-2.30;99.90;;;;;;2097012;28;20180;-74
2022/03/03 04:53:03;;;;;;;9.38;5.20;;;-2.40;99.90;;;;;;2080484;28;20269;-74
2022/03/03 04:54:06;;;;;;;9.87;4.87;;;-2.40;99.90;;;;;;2088584;28;20666;-74
2022/03/03 04:55:08;;;;;;;11.02;5.65;;;-2.40;99.90;;;;;;2096951;28;20184;-74
2022/03/03 04:56:09;;;;;;;8.10;4.63;;;-2.40;99.90;;;;;;2088611;28;20194;-74
2022/03/03 04:57:09;;;;;;;12.53;5.47;;;-2.40;99.90;;;;;;2097370;28;20211;-74
2022/03/03 04:58:10;;;;;;;11.57;5.13;;;-2.40;99.90;;;;;;2097047;28;20246;-74
2022/03/03 04:59:11;;;;;;;12.80;6.03;;;-2.50;99.90;;;;;;2097787;28;20219;-74
2022/03/03 05:00:12;;;;;;;11.50;5.40;;;-2.50;99.90;;;;;;2099380;28;20676;-74
2022/03/03 05:01:14;;;;;;;11.93;5.72;;;-2.50;99.90;;;;;;2107184;28;20193;-74
2022/03/03 05:02:15;;;;;;;9.93;5.43;;;-2.50;99.90;;;;;;2098853;28;20207;-74
2022/03/03 05:03:16;;;;;;;8.63;4.97;;;-2.50;99.90;;;;;;2098957;28;20172;-74
2022/03/03 05:04:18;;;;;;;11.40;5.13;;;-2.50;99.90;;;;;;2098736;28;20184;-74
2022/03/03 05:05:18;;;;;;;10.30;5.47;;;-2.50;99.90;;;;;;2090152;28;20173;-74
2022/03/03 05:06:19;;;;;;;10.73;4.73;;;-2.50;99.90;;;;;;2098880;28;20260;-74
2022/03/03 05:07:20;;;;;;;10.52;4.90;;;-2.60;99.90;;;;;;2098542;28;20188;-74
2022/03/03 05:08:21;;;;;;;12.33;5.20;;;-2.60;99.90;;;;;;2098752;28;20694;-74
2022/03/03 05:09:21;;;;;;;9.67;5.43;;;-2.70;99.90;;;;;;2099432;28;20629;-74
2022/03/03 05:10:22;;;;;;;12.40;6.63;;;-2.70;99.90;;;;;;2099390;28;20260;-74
2022/03/03 05:11:23;;;;;;;16.03;5.17;;;-2.70;99.90;;;;;;2098713;28;20523;-73
2022/03/03 05:12:24;;;;;;;8.73;5.73;;;-2.70;99.90;;;;;;2090132;28;20174;-73
2022/03/03 05:13:25;;;;;;;10.57;5.07;;;-2.80;99.90;;;;;;2090181;28;20196;-74
2022/03/03 05:14:26;;;;;;;8.60;4.47;;;-2.80;99.90;;;;;;2090351;28;20211;-73
2022/03/03 05:15:28;;;;;;;8.30;5.35;;;-2.80;99.90;;;;;;2089677;28;20183;-74